createdAt,value
2022-10-07T00:00:42.461Z,16.54
2022-10-07T00:02:44.761Z,16.55
2022-10-07T00:04:47.128Z,16.54
2022-10-07T00:06:49.368Z,16.52
2022-10-07T00:08:53.421Z,16.52
2022-10-07T00:10:58.171Z,16.50
2022-10-07T00:13:01.542Z,16.47
2022-10-07T00:15:05.884Z,16.46
2022-10-07T00:17:07.836Z,16.43
2022-10-07T00:19:13.199Z,16.39
2022-10-07T00:21:16.994Z,16.41
2022-10-07T00:23:18.985Z,16.40
2022-10-07T00:25:21.755Z,16.41
2022-10-07T00:27:24.368Z,16.36
2022-10-07T00:29:28.413Z,16.35
2022-10-07T00:31:36.316Z,16.30
2022-10-07T00:33:39.739Z,16.28
2022-10-07T00:35:42.862Z,16.28
2022-10-07T00:37:45.431Z,16.24
2022-10-07T00:39:47.732Z,16.23
2022-10-07T00:41:52.468Z,16.22
2022-10-07T00:43:55.525Z,16.19
2022-10-07T00:46:37.845Z,16.07
2022-10-07T00:48:40.395Z,16.13
2022-10-07T00:50:43.177Z,16.06
2022-10-07T00:52:51.347Z,16.01
2022-10-07T00:54:56.680Z,16.01
2022-10-07T00:56:59.336Z,16.00
2022-10-07T00:59:02.482Z,16.00
2022-10-07T01:01:05.106Z,15.97
2022-10-07T01:03:07.191Z,15.96
2022-10-07T01:05:11.311Z,15.96
2022-10-07T01:07:13.402Z,15.97
2022-10-07T01:09:17.852Z,15.96
2022-10-07T01:11:34.306Z,15.83
2022-10-07T01:13:48.627Z,15.80
2022-10-07T01:16:18.180Z,15.76
2022-10-07T01:18:34.902Z,15.77
2022-10-07T01:20:55.197Z,15.79
2022-10-07T01:23:12.268Z,15.75
2022-10-07T01:25:55.307Z,15.62
2022-10-07T01:28:53.133Z,15.59
2022-10-07T01:31:01.195Z,15.65
2022-10-07T01:33:07.906Z,15.64
2022-10-07T01:35:20.875Z,15.54
2022-10-07T01:37:25.513Z,15.62
2022-10-07T01:39:34.042Z,15.54
2022-10-07T01:41:39.205Z,15.55
2022-10-07T01:43:42.500Z,15.55
2022-10-07T01:45:45.098Z,15.47
2022-10-07T01:47:51.128Z,15.53
2022-10-07T01:49:54.494Z,15.50
2022-10-07T01:52:24.753Z,15.48
2022-10-07T01:54:51.892Z,15.41
2022-10-07T01:57:05.768Z,15.43
2022-10-07T01:59:53.293Z,15.40
2022-10-07T02:02:21.888Z,15.46
2022-10-07T02:05:03.522Z,15.40
2022-10-07T02:07:36.250Z,15.41
2022-10-07T02:09:51.505Z,15.46
2022-10-07T02:12:05.550Z,15.45
2022-10-07T02:14:33.093Z,15.43
2022-10-07T02:16:47.297Z,15.43
2022-10-07T02:18:52.702Z,15.44
2022-10-07T02:20:56.180Z,15.45
2022-10-07T02:23:02.491Z,15.38
2022-10-07T02:25:06.240Z,15.43
2022-10-07T02:27:16.196Z,15.37
2022-10-07T02:29:25.871Z,15.36
2022-10-07T02:31:33.049Z,15.38
2022-10-07T02:33:38.156Z,15.37
2022-10-07T02:35:42.769Z,15.40
2022-10-07T02:37:49.804Z,15.43
2022-10-07T02:39:53.486Z,15.49
2022-10-07T02:42:14.409Z,15.39
2022-10-07T02:44:52.223Z,15.37
2022-10-07T02:47:05.982Z,15.44
2022-10-07T02:49:11.694Z,15.38
2022-10-07T02:51:21.198Z,15.37
2022-10-07T02:53:28.553Z,15.36
2022-10-07T02:55:31.770Z,15.38
2022-10-07T02:57:41.743Z,15.33
2022-10-07T02:59:47.394Z,15.35
2022-10-07T03:01:55.921Z,15.32
2022-10-07T03:03:58.785Z,15.33
2022-10-07T03:06:04.300Z,15.37
2022-10-07T03:08:09.683Z,15.32
2022-10-07T03:10:13.084Z,15.36
2022-10-07T03:12:15.662Z,15.33
2022-10-07T03:14:17.850Z,15.33
2022-10-07T03:16:20.176Z,15.31
2022-10-07T03:18:28.726Z,15.32
2022-10-07T03:20:40.299Z,15.31
2022-10-07T03:22:46.153Z,15.34
2022-10-07T03:24:51.709Z,15.31
2022-10-07T03:26:54.007Z,15.35
2022-10-07T03:28:57.409Z,15.25
2022-10-07T03:31:05.585Z,15.18
2022-10-07T03:33:08.713Z,15.13
2022-10-07T03:35:11.110Z,15.15
2022-10-07T03:37:14.195Z,15.16
2022-10-07T03:39:16.684Z,15.16
2022-10-07T03:41:19.749Z,15.13
2022-10-07T03:43:26.525Z,15.16
2022-10-07T03:45:32.394Z,15.13
2022-10-07T03:47:35.991Z,15.13
2022-10-07T03:49:39.044Z,15.10
2022-10-07T03:51:41.547Z,15.10
2022-10-07T03:53:44.437Z,15.11
2022-10-07T03:55:48.401Z,15.09
2022-10-07T03:57:51.824Z,15.11
2022-10-07T03:59:56.477Z,15.07
2022-10-07T04:01:58.695Z,15.08
2022-10-07T04:04:01.073Z,15.07
2022-10-07T04:06:06.930Z,15.07
2022-10-07T04:08:12.734Z,15.02
2022-10-07T04:10:17.150Z,15.02
2022-10-07T04:12:19.246Z,15.03
2022-10-07T04:14:21.468Z,15.01
2022-10-07T04:16:24.311Z,15.02
2022-10-07T04:18:26.881Z,14.96
2022-10-07T04:20:29.370Z,14.98
2022-10-07T04:22:31.792Z,14.96
2022-10-07T04:24:33.768Z,14.97
2022-10-07T04:26:36.245Z,14.95
2022-10-07T04:28:39.177Z,14.95
2022-10-07T04:30:51.244Z,14.97
2022-10-07T04:32:57.609Z,14.91
2022-10-07T04:34:59.845Z,14.89
2022-10-07T04:37:01.998Z,14.90
2022-10-07T04:39:05.701Z,14.91
2022-10-07T04:41:11.300Z,14.89
2022-10-07T04:43:20.511Z,14.85
2022-10-07T04:45:32.727Z,14.87
2022-10-07T04:47:36.087Z,14.89
2022-10-07T04:49:38.988Z,14.91
2022-10-07T04:51:43.696Z,14.94
2022-10-07T04:53:56.787Z,14.90
2022-10-07T04:56:06.163Z,14.81
2022-10-07T04:58:09.036Z,14.76
2022-10-07T05:00:11.677Z,14.79
2022-10-07T05:02:13.799Z,14.73
2022-10-07T05:04:16.200Z,14.76
2022-10-07T05:06:18.562Z,14.76
2022-10-07T05:08:24.585Z,14.80
2022-10-07T05:10:28.065Z,14.83
2022-10-07T05:12:30.113Z,14.87
2022-10-07T05:14:36.582Z,14.92
2022-10-07T05:16:39.983Z,14.95
2022-10-07T05:18:43.199Z,14.93
2022-10-07T05:20:49.025Z,15.00
2022-10-07T05:22:51.687Z,15.00
2022-10-07T05:24:54.684Z,15.08
2022-10-07T05:26:57.025Z,15.11
2022-10-07T05:28:59.123Z,15.16
2022-10-07T05:31:15.392Z,15.17
2022-10-07T05:33:21.552Z,15.23
2022-10-07T05:35:25.178Z,15.30
2022-10-07T05:37:27.895Z,15.38
2022-10-07T05:39:32.815Z,15.39
2022-10-07T05:41:45.730Z,15.48
2022-10-07T05:43:51.171Z,15.50
2022-10-07T05:46:04.517Z,15.62
2022-10-07T05:48:08.727Z,15.72
2022-10-07T05:50:10.535Z,15.87
2022-10-07T05:52:13.397Z,15.95
2022-10-07T05:54:18.546Z,15.96
2022-10-07T05:56:21.958Z,16.02
2022-10-07T05:58:25.326Z,15.91
2022-10-07T06:00:28.514Z,15.94
2022-10-07T06:02:30.891Z,15.95
2022-10-07T06:04:33.374Z,15.87
2022-10-07T06:06:36.756Z,15.86
2022-10-07T06:08:43.184Z,15.88
2022-10-07T06:11:04.599Z,15.93
2022-10-07T06:13:09.414Z,15.89
2022-10-07T06:15:14.834Z,15.89
2022-10-07T06:17:20.311Z,15.95
2022-10-07T06:19:23.833Z,15.95
2022-10-07T06:21:29.872Z,15.90
2022-10-07T06:23:36.298Z,15.99
2022-10-07T06:25:39.253Z,16.02
2022-10-07T06:27:41.273Z,16.09
2022-10-07T06:29:43.311Z,16.15
2022-10-07T06:31:48.674Z,16.17
2022-10-07T06:33:51.561Z,16.19
2022-10-07T06:35:59.844Z,16.29
2022-10-07T06:38:06.637Z,16.42
2022-10-07T06:40:12.741Z,16.55
2022-10-07T06:42:15.091Z,16.66
2022-10-07T06:44:32.833Z,16.72
2022-10-07T06:46:36.365Z,16.75
2022-10-07T06:48:41.731Z,16.89
2022-10-07T06:50:51.406Z,16.92
2022-10-07T06:52:53.804Z,17.05
2022-10-07T06:54:56.503Z,17.09
2022-10-07T06:56:58.573Z,17.16
2022-10-07T06:59:02.186Z,17.20
2022-10-07T07:01:15.213Z,17.28
2022-10-07T07:03:17.908Z,17.34
2022-10-07T07:05:20.789Z,17.41
2022-10-07T07:07:24.517Z,17.47
2022-10-07T07:09:27.056Z,17.53
2022-10-07T07:11:43.638Z,17.59
2022-10-07T07:13:50.959Z,17.69
2022-10-07T07:16:00.326Z,17.75
2022-10-07T07:18:08.939Z,17.84
2022-10-07T07:20:11.998Z,17.94
2022-10-07T07:22:14.218Z,18.06
2022-10-07T07:24:18.230Z,18.16
2022-10-07T07:26:22.482Z,18.28
2022-10-07T07:28:24.827Z,18.38
2022-10-07T07:30:28.115Z,18.56
2022-10-07T07:32:31.696Z,18.67
2022-10-07T07:34:38.294Z,18.75
2022-10-07T07:36:46.587Z,18.80
2022-10-07T07:38:54.778Z,18.83
2022-10-07T07:40:57.364Z,18.91
2022-10-07T07:42:59.854Z,19.02
2022-10-07T07:45:04.960Z,19.08
2022-10-07T07:47:09.057Z,19.19
2022-10-07T07:49:13.442Z,19.26
2022-10-07T07:51:19.161Z,19.32
2022-10-07T07:53:23.130Z,19.46
2022-10-07T07:55:25.985Z,19.52
2022-10-07T07:57:29.995Z,19.65
2022-10-07T07:59:37.597Z,19.73
2022-10-07T08:01:41.051Z,19.87
2022-10-07T08:03:46.489Z,19.94
2022-10-07T08:05:49.589Z,20.03
2022-10-07T08:07:52.484Z,20.08
2022-10-07T08:09:55.814Z,20.17
2022-10-07T08:11:58.317Z,20.25
2022-10-07T08:14:03.343Z,20.33
2022-10-07T08:16:14.472Z,20.39
2022-10-07T08:18:18.918Z,20.49
2022-10-07T08:20:21.282Z,20.56
2022-10-07T08:22:23.824Z,20.65
2022-10-07T08:24:28.134Z,20.80
2022-10-07T08:26:33.136Z,20.92
2022-10-07T08:28:38.415Z,21.00
2022-10-07T08:30:40.507Z,21.15
2022-10-07T08:32:42.612Z,21.22
2022-10-07T08:34:44.609Z,21.30
2022-10-07T08:36:48.859Z,21.40
2022-10-07T08:38:51.434Z,21.44
2022-10-07T08:40:54.041Z,21.50
2022-10-07T08:42:56.150Z,21.57
2022-10-07T08:44:58.520Z,21.61
2022-10-07T08:47:27.306Z,21.62
2022-10-07T08:49:48.509Z,21.64
2022-10-07T08:52:05.921Z,21.72
2022-10-07T08:54:13.825Z,21.80
2022-10-07T08:56:18.740Z,21.91
2022-10-07T08:58:32.947Z,21.98
2022-10-07T09:00:59.004Z,22.02
2022-10-07T09:03:50.309Z,22.15
2022-10-07T09:05:54.917Z,22.26
2022-10-07T09:08:00.023Z,22.34
2022-10-07T09:10:11.040Z,22.37
2022-10-07T09:12:45.282Z,22.44
2022-10-07T09:14:50.606Z,22.53
2022-10-07T09:16:55.270Z,22.60
2022-10-07T09:19:02.598Z,22.63
2022-10-07T09:21:12.999Z,22.70
2022-10-07T09:23:16.044Z,22.78
2022-10-07T09:25:22.428Z,22.81
2022-10-07T09:27:26.865Z,22.89
2022-10-07T09:29:30.585Z,22.94
2022-10-07T09:31:32.945Z,23.02
2022-10-07T09:33:43.028Z,23.08
2022-10-07T09:36:04.260Z,23.15
2022-10-07T09:38:10.432Z,23.20
2022-10-07T09:40:31.187Z,23.22
2022-10-07T09:42:43.215Z,23.31
2022-10-07T09:44:52.619Z,23.32
2022-10-07T09:46:59.625Z,23.42
2022-10-07T09:49:05.598Z,23.42
2022-10-07T09:51:17.141Z,23.44
2022-10-07T09:53:22.875Z,23.50
2022-10-07T09:55:37.491Z,23.55
2022-10-07T09:57:40.688Z,23.59
2022-10-07T09:59:42.627Z,23.64
2022-10-07T10:01:55.318Z,23.63
2022-10-07T10:03:58.930Z,23.70
2022-10-07T10:06:04.151Z,23.73
2022-10-07T10:08:21.476Z,23.77
2022-10-07T10:10:31.290Z,23.81
2022-10-07T10:12:44.949Z,23.83
2022-10-07T10:14:53.756Z,23.87
2022-10-07T10:16:56.800Z,23.93
2022-10-07T10:19:04.085Z,23.98
2022-10-07T10:21:12.140Z,24.00
2022-10-07T10:23:36.123Z,24.06
2022-10-07T10:26:16.039Z,24.13
2022-10-07T10:28:35.261Z,24.18
2022-10-07T10:30:50.593Z,24.24
2022-10-07T10:33:14.831Z,24.24
2022-10-07T10:35:29.999Z,24.31
2022-10-07T10:37:40.905Z,24.28
2022-10-07T10:40:20.963Z,24.29
2022-10-07T10:42:31.607Z,24.35
2022-10-07T10:45:02.766Z,24.40
2022-10-07T10:47:26.467Z,24.47
2022-10-07T10:49:54.351Z,24.45
2022-10-07T10:52:12.445Z,24.49
2022-10-07T10:54:31.669Z,24.52
2022-10-07T10:56:54.189Z,24.57
2022-10-07T10:59:20.880Z,24.67
2022-10-07T11:01:24.052Z,24.76
2022-10-07T11:03:41.711Z,24.75
2022-10-07T11:05:45.063Z,24.83
2022-10-07T11:07:50.499Z,24.86
2022-10-07T11:09:57.848Z,24.86
2022-10-07T11:12:05.141Z,24.92
2022-10-07T11:14:22.992Z,24.94
2022-10-07T11:16:38.717Z,24.97
2022-10-07T11:19:05.150Z,24.97
2022-10-07T11:21:15.110Z,24.98
2022-10-07T11:23:22.832Z,24.99
2022-10-07T11:25:36.537Z,25.02
2022-10-07T11:27:40.418Z,25.07
2022-10-07T11:29:57.110Z,25.10
2022-10-07T11:32:05.502Z,25.15
2022-10-07T11:34:14.024Z,25.14
2022-10-07T11:36:24.963Z,25.14
2022-10-07T11:38:33.632Z,25.18
2022-10-07T11:40:44.086Z,25.20
2022-10-07T11:42:50.476Z,25.23
2022-10-07T11:45:13.130Z,25.23
2022-10-07T11:47:20.548Z,25.24
2022-10-07T11:49:56.073Z,25.25
2022-10-07T11:52:24.954Z,25.29
2022-10-07T11:54:30.432Z,25.32
2022-10-07T11:56:49.739Z,25.31
2022-10-07T11:59:02.853Z,25.36
2022-10-07T12:01:31.012Z,25.33
2022-10-07T12:03:33.708Z,25.37
2022-10-07T12:05:35.771Z,25.38
2022-10-07T12:07:45.019Z,25.31
2022-10-07T12:09:54.436Z,25.33
2022-10-07T12:11:57.021Z,25.38
2022-10-07T12:14:33.147Z,25.36
2022-10-07T12:16:43.061Z,25.39
2022-10-07T12:19:10.836Z,25.35
2022-10-07T12:21:13.772Z,25.44
2022-10-07T12:23:18.967Z,25.42
2022-10-07T12:25:29.463Z,25.40
2022-10-07T12:27:32.084Z,25.44
2022-10-07T12:29:48.608Z,25.47
2022-10-07T12:31:51.207Z,25.53
2022-10-07T12:34:10.559Z,25.47
2022-10-07T12:36:23.487Z,25.49
2022-10-07T12:38:28.579Z,25.54
2022-10-07T12:40:35.962Z,25.49
2022-10-07T12:42:45.790Z,25.55
2022-10-07T12:44:52.861Z,25.58
2022-10-07T12:47:18.438Z,25.56
2022-10-07T12:49:30.224Z,25.49
2022-10-07T12:51:39.856Z,25.55
2022-10-07T12:53:43.177Z,25.55
2022-10-07T12:55:50.223Z,25.51
2022-10-07T12:57:54.575Z,25.50
2022-10-07T13:00:02.629Z,25.48
2022-10-07T13:02:14.838Z,25.51
2022-10-07T13:04:30.793Z,25.46
2022-10-07T13:06:46.503Z,25.44
2022-10-07T13:09:33.282Z,25.37
2022-10-07T13:12:15.459Z,25.34
2022-10-07T13:14:44.470Z,25.33
2022-10-07T13:17:20.395Z,25.31
2022-10-07T13:19:39.189Z,25.32
2022-10-07T13:21:55.280Z,25.30
2022-10-07T13:23:57.322Z,25.32
2022-10-07T13:26:04.308Z,25.25
2022-10-07T13:28:07.361Z,25.23
2022-10-07T13:30:47.149Z,25.16
2022-10-07T13:32:49.232Z,25.15
2022-10-07T13:34:54.688Z,25.12
2022-10-07T13:36:57.220Z,25.12
2022-10-07T13:39:19.686Z,25.08
2022-10-07T13:41:27.978Z,25.11
2022-10-07T13:43:32.470Z,25.12
2022-10-07T13:45:45.297Z,25.07
2022-10-07T13:47:50.699Z,25.09
2022-10-07T13:49:54.292Z,25.11
2022-10-07T13:51:59.528Z,25.12
2022-10-07T13:54:04.807Z,25.06
2022-10-07T13:56:12.390Z,25.06
2022-10-07T13:58:15.544Z,25.07
2022-10-07T14:00:17.871Z,25.04
2022-10-07T14:02:20.859Z,25.02
2022-10-07T14:04:31.481Z,24.97
2022-10-07T14:06:48.636Z,24.98
2022-10-07T14:08:51.306Z,25.03
2022-10-07T14:10:58.900Z,25.00
2022-10-07T14:13:08.375Z,24.95
2022-10-07T14:15:17.151Z,24.95
2022-10-07T14:17:24.879Z,24.93
2022-10-07T14:19:33.126Z,24.89
2022-10-07T14:21:41.413Z,24.87
2022-10-07T14:23:46.996Z,24.86
2022-10-07T14:25:48.898Z,24.84
2022-10-07T14:27:53.125Z,24.81
2022-10-07T14:29:55.133Z,24.81
2022-10-07T14:32:39.102Z,24.74
2022-10-07T14:35:02.563Z,24.77
2022-10-07T14:37:09.912Z,24.76
2022-10-07T14:39:31.440Z,24.71
2022-10-07T14:41:33.445Z,24.72
2022-10-07T14:43:36.227Z,24.69
2022-10-07T14:45:38.336Z,24.68
2022-10-07T14:47:41.598Z,24.66
2022-10-07T14:49:43.743Z,24.62
2022-10-07T14:51:46.420Z,24.59
2022-10-07T14:53:51.441Z,24.54
2022-10-07T14:55:54.226Z,24.51
2022-10-07T14:57:56.439Z,24.49
2022-10-07T14:59:58.367Z,24.43
2022-10-07T15:02:01.219Z,24.39
2022-10-07T15:04:03.290Z,24.33
2022-10-07T15:06:06.671Z,24.31
2022-10-07T15:08:11.995Z,24.27
2022-10-07T15:10:21.863Z,24.21
2022-10-07T15:12:23.951Z,24.21
2022-10-07T15:14:26.085Z,24.20
2022-10-07T15:16:28.704Z,24.15
2022-10-07T15:18:31.294Z,24.12
2022-10-07T15:20:35.532Z,24.06
2022-10-07T15:22:38.292Z,24.02
2022-10-07T15:24:40.326Z,23.98
2022-10-07T15:26:42.619Z,23.94
2022-10-07T15:28:44.974Z,23.90
2022-10-07T15:30:46.959Z,23.86
2022-10-07T15:32:49.378Z,23.82
2022-10-07T15:34:55.298Z,23.77
2022-10-07T15:36:57.433Z,23.72
2022-10-07T15:39:02.794Z,23.68
2022-10-07T15:41:04.912Z,23.64
2022-10-07T15:43:06.924Z,23.60
2022-10-07T15:45:10.391Z,23.56
2022-10-07T15:47:13.593Z,23.52
2022-10-07T15:49:19.265Z,23.45
2022-10-07T15:51:21.550Z,23.42
2022-10-07T15:53:25.526Z,23.38
2022-10-07T15:55:27.693Z,23.33
2022-10-07T15:57:29.715Z,23.30
2022-10-07T15:59:32.029Z,23.23
2022-10-07T16:01:34.291Z,23.19
2022-10-07T16:03:41.504Z,23.13
2022-10-07T16:05:43.929Z,23.08
2022-10-07T16:07:45.801Z,23.02
2022-10-07T16:09:47.898Z,22.98
2022-10-07T16:11:51.089Z,22.92
2022-10-07T16:13:53.053Z,22.89
2022-10-07T16:15:57.195Z,22.81
2022-10-07T16:17:59.468Z,22.76
2022-10-07T16:20:05.570Z,22.70
2022-10-07T16:22:13.779Z,22.64
2022-10-07T16:24:23.241Z,22.55
2022-10-07T16:26:29.574Z,22.54
2022-10-07T16:28:51.265Z,22.49
2022-10-07T16:30:53.411Z,22.43
2022-10-07T16:32:55.375Z,22.35
2022-10-07T16:34:57.875Z,22.32
2022-10-07T16:36:59.920Z,22.27
2022-10-07T16:39:03.565Z,22.22
2022-10-07T16:41:05.627Z,22.17
2022-10-07T16:43:07.731Z,22.12
2022-10-07T16:45:10.239Z,22.08
2022-10-07T16:47:13.175Z,22.02
2022-10-07T16:49:17.778Z,21.98
2022-10-07T16:51:23.037Z,21.93
2022-10-07T16:53:27.252Z,21.89
2022-10-07T16:55:29.421Z,21.84
2022-10-07T16:57:31.910Z,21.79
2022-10-07T16:59:36.614Z,21.72
2022-10-07T17:01:39.501Z,21.66
2022-10-07T17:03:43.466Z,21.60
2022-10-07T17:05:45.664Z,21.56
2022-10-07T17:07:48.621Z,21.52
2022-10-07T17:09:50.870Z,21.47
2022-10-07T17:11:52.849Z,21.41
2022-10-07T17:14:17.997Z,21.36
2022-10-07T17:16:20.351Z,21.32
2022-10-07T17:18:24.733Z,21.28
2022-10-07T17:20:26.725Z,21.25
2022-10-07T17:22:28.941Z,21.19
2022-10-07T17:24:31.466Z,21.16
2022-10-07T17:26:33.837Z,21.10
2022-10-07T17:28:37.237Z,21.07
2022-10-07T17:30:39.612Z,21.04
2022-10-07T17:32:42.383Z,21.00
2022-10-07T17:34:45.541Z,20.96
2022-10-07T17:36:48.526Z,20.91
2022-10-07T17:38:50.603Z,20.85
2022-10-07T17:40:52.798Z,20.80
2022-10-07T17:42:55.745Z,20.76
2022-10-07T17:44:58.251Z,20.70
2022-10-07T17:47:03.728Z,20.65
2022-10-07T17:49:08.084Z,20.60
2022-10-07T17:51:10.424Z,20.55
2022-10-07T17:53:12.455Z,20.52
2022-10-07T17:55:14.193Z,20.38
2022-10-07T17:57:16.359Z,20.33
2022-10-07T17:59:18.220Z,20.30
2022-10-07T18:01:23.966Z,20.28
2022-10-07T18:03:26.752Z,20.24
2022-10-07T18:05:28.831Z,20.21
2022-10-07T18:07:30.665Z,20.18
2022-10-07T18:09:32.788Z,20.14
2022-10-07T18:11:53.343Z,20.11
2022-10-07T18:14:13.308Z,20.01
2022-10-07T18:16:15.900Z,19.95
2022-10-07T18:18:17.597Z,19.82
2022-10-07T18:20:21.673Z,19.78
2022-10-07T18:22:24.397Z,19.75
2022-10-07T18:24:28.892Z,19.73
2022-10-07T18:26:30.851Z,19.73
2022-10-07T18:28:34.440Z,19.69
2022-10-07T18:30:36.371Z,19.67
2022-10-07T18:32:38.128Z,19.59
2022-10-07T18:34:39.936Z,19.55
2022-10-07T18:36:41.670Z,19.49
2022-10-07T18:38:44.759Z,19.49
2022-10-07T18:40:46.520Z,19.48
2022-10-07T18:42:48.291Z,19.48
2022-10-07T18:44:50.705Z,19.46
2022-10-07T18:46:53.363Z,19.44
2022-10-07T18:48:55.049Z,19.40
2022-10-07T18:50:57.129Z,19.40
2022-10-07T18:53:00.692Z,19.35
2022-10-07T18:55:02.945Z,19.33
2022-10-07T18:57:04.773Z,19.28
2022-10-07T18:59:07.009Z,19.17
2022-10-07T19:01:13.136Z,19.13
2022-10-07T19:03:17.680Z,19.08
2022-10-07T19:05:19.956Z,19.08
2022-10-07T19:07:22.162Z,19.07
2022-10-07T19:09:27.259Z,19.04
2022-10-07T19:11:32.182Z,19.06
2022-10-07T19:13:53.769Z,19.05
2022-10-07T19:16:02.256Z,19.04
2022-10-07T19:18:04.731Z,19.00
2022-10-07T19:20:07.330Z,18.98
2022-10-07T19:22:09.862Z,18.96
2022-10-07T19:24:15.071Z,18.95
2022-10-07T19:26:21.692Z,18.92
2022-10-07T19:28:25.585Z,18.92
2022-10-07T19:30:27.951Z,18.90
2022-10-07T19:32:30.160Z,18.89
2022-10-07T19:34:34.292Z,18.86
2022-10-07T19:36:41.988Z,18.74
2022-10-07T19:38:46.377Z,18.72
2022-10-07T19:40:51.093Z,18.52
2022-10-07T19:42:53.606Z,18.56
2022-10-07T19:44:56.100Z,18.56
2022-10-07T19:46:58.548Z,18.54
2022-10-07T19:49:02.209Z,18.50
2022-10-07T19:51:08.663Z,18.50
2022-10-07T19:53:11.077Z,18.52
2022-10-07T19:55:13.697Z,18.53
2022-10-07T19:57:16.260Z,18.55
2022-10-07T19:59:18.687Z,18.55
2022-10-07T20:01:24.197Z,18.54
2022-10-07T20:03:26.853Z,18.53
2022-10-07T20:05:30.201Z,18.48
2022-10-07T20:07:32.475Z,18.41
2022-10-07T20:09:34.830Z,18.40
2022-10-07T20:11:37.507Z,18.39
2022-10-07T20:13:41.148Z,18.37
2022-10-07T20:15:43.920Z,18.37
2022-10-07T20:17:49.706Z,18.34
2022-10-07T20:19:53.944Z,18.35
2022-10-07T20:21:56.890Z,18.34
2022-10-07T20:23:59.374Z,18.35
2022-10-07T20:26:09.375Z,18.31
2022-10-07T20:28:11.616Z,18.31
2022-10-07T20:30:18.106Z,18.30
2022-10-07T20:32:24.310Z,18.28
2022-10-07T20:34:26.857Z,18.27
2022-10-07T20:36:31.555Z,18.26
2022-10-07T20:38:53.948Z,18.22
2022-10-07T20:41:14.656Z,18.20
2022-10-07T20:43:18.874Z,18.19
2022-10-07T20:45:21.181Z,18.18
2022-10-07T20:47:24.201Z,18.15
2022-10-07T20:49:29.041Z,18.11
2022-10-07T20:51:31.347Z,18.09
2022-10-07T20:53:33.996Z,18.09
2022-10-07T20:55:36.984Z,18.07
2022-10-07T20:57:39.681Z,18.04
2022-10-07T20:59:43.016Z,18.02
2022-10-07T21:01:45.699Z,18.00
2022-10-07T21:03:51.243Z,18.01
2022-10-07T21:05:58.575Z,17.96
2022-10-07T21:08:00.876Z,17.97
2022-10-07T21:10:02.993Z,17.84
2022-10-07T21:12:08.212Z,17.85
2022-10-07T21:14:11.681Z,17.86
2022-10-07T21:16:14.391Z,17.84
2022-10-07T21:18:19.260Z,17.84
2022-10-07T21:20:21.465Z,17.78
2022-10-07T21:22:23.952Z,17.78
2022-10-07T21:24:26.333Z,17.75
2022-10-07T21:26:28.633Z,17.74
2022-10-07T21:28:33.626Z,17.70
2022-10-07T21:30:36.131Z,17.68
2022-10-07T21:32:38.181Z,17.69
2022-10-07T21:34:40.889Z,17.66
2022-10-07T21:36:50.409Z,17.63
2022-10-07T21:38:56.556Z,17.61
2022-10-07T21:41:12.233Z,17.57
2022-10-07T21:43:15.118Z,17.59
2022-10-07T21:45:17.622Z,17.56
2022-10-07T21:47:19.791Z,17.58
2022-10-07T21:49:21.997Z,17.55
2022-10-07T21:51:27.150Z,17.52
2022-10-07T21:53:29.494Z,17.49
2022-10-07T21:55:31.927Z,17.47
2022-10-07T21:57:34.586Z,17.36
2022-10-07T21:59:36.931Z,17.39
2022-10-07T22:01:39.239Z,17.41
2022-10-07T22:03:42.474Z,17.39
2022-10-07T22:05:45.194Z,17.40
2022-10-07T22:08:05.746Z,17.36
2022-10-07T22:10:08.563Z,17.34
2022-10-07T22:12:10.846Z,17.35
2022-10-07T22:14:16.023Z,17.33
2022-10-07T22:16:19.507Z,17.33
2022-10-07T22:18:22.383Z,17.31
2022-10-07T22:20:27.841Z,17.29
2022-10-07T22:22:31.838Z,17.30
2022-10-07T22:24:37.379Z,17.29
2022-10-07T22:26:44.698Z,17.27
2022-10-07T22:28:46.953Z,17.24
2022-10-07T22:30:49.082Z,17.12
2022-10-07T22:32:53.537Z,17.09
2022-10-07T22:35:13.907Z,17.11
2022-10-07T22:37:16.008Z,17.12
2022-10-07T22:39:18.436Z,17.15
2022-10-07T22:41:20.628Z,17.15
2022-10-07T22:43:22.966Z,17.12
2022-10-07T22:45:25.253Z,17.07
2022-10-07T22:47:27.514Z,17.02
2022-10-07T22:49:30.454Z,17.04
2022-10-07T22:51:33.011Z,17.01
2022-10-07T22:53:38.347Z,17.02
2022-10-07T22:55:40.454Z,16.97
2022-10-07T22:57:42.676Z,16.92
2022-10-07T22:59:45.267Z,16.97
2022-10-07T23:01:50.315Z,17.00
2022-10-07T23:03:53.272Z,17.03
2022-10-07T23:05:55.745Z,17.03
2022-10-07T23:08:00.182Z,17.04
2022-10-07T23:10:02.454Z,17.03
2022-10-07T23:12:06.266Z,17.02
2022-10-07T23:14:08.689Z,17.01
2022-10-07T23:16:15.325Z,17.02
2022-10-07T23:18:17.371Z,17.03
2022-10-07T23:20:19.552Z,17.01
2022-10-07T23:22:22.119Z,17.00
2022-10-07T23:24:24.416Z,17.00
2022-10-07T23:26:29.307Z,16.97
2022-10-07T23:28:33.535Z,16.90
2022-10-07T23:30:38.764Z,16.79
2022-10-07T23:32:45.411Z,16.75
2022-10-07T23:34:47.732Z,16.79
2022-10-07T23:36:49.669Z,16.78
2022-10-07T23:39:53.816Z,16.71
2022-10-07T23:41:56.035Z,16.70
2022-10-07T23:44:02.153Z,16.68
2022-10-07T23:46:06.584Z,16.63
2022-10-07T23:48:09.826Z,16.50
2022-10-07T23:50:15.581Z,16.57
2022-10-07T23:52:17.632Z,16.58
2022-10-07T23:54:19.725Z,16.57
2022-10-07T23:56:21.952Z,16.52
2022-10-07T23:58:26.834Z,16.43
